Time;durP1;ratioP1;P1;durP2;ratioP2;P2;SDS_P1;SDS_P2;PMS_P1;PMS_P2;Temp;Humidity;BMP_temperature;BMP_pressure;BME280_temperature;BME280_humidity;BME280_pressure;Samples;Min_cycle;Max_cycle;Signal;HPM_P1;HPM_P2
2021/08/26 03:33:29;;;;;;;0.82;0.82;;;;;;;14.67;80.69;92405.88;4599363;28;20138;-77
2021/08/26 03:35:55;;;;;;;1.17;0.63;;;;;;;14.63;80.57;92402.31;4756027;30;20131;-80
2021/08/26 03:38:20;;;;;;;1.63;1.10;;;;;;;14.63;80.93;92407.59;4755697;30;20050;-77
2021/08/26 03:40:47;;;;;;;1.00;0.73;;;;;;;14.62;81.12;92413.97;4771820;30;20052;-78
2021/08/26 03:43:13;;;;;;;1.95;0.85;;;;;;;14.58;80.87;92408.53;4740651;30;20063;-78
2021/08/26 03:45:38;;;;;;;2.75;1.52;;;;;;;14.55;81.21;92413.66;4771532;30;20056;-78
2021/08/26 03:48:09;;;;;;;1.92;1.08;;;;;;;14.51;81.42;92407.44;4771622;30;20078;-79
2021/08/26 03:50:35;;;;;;;1.15;0.90;;;;;;;14.47;81.44;92412.53;4770905;30;20075;-77
2021/08/26 03:53:00;;;;;;;0.68;0.60;;;;;;;14.43;81.49;92406.34;4770393;30;20063;-78
2021/08/26 03:55:26;;;;;;;0.90;0.68;;;;;;;14.42;81.35;92406.66;4770305;30;20078;-77
2021/08/26 03:57:51;;;;;;;1.05;0.75;;;;;;;14.41;81.88;92405.09;4771512;30;20375;-78
2021/08/26 04:00:17;;;;;;;0.40;0.40;;;;;;;14.40;81.82;92408.84;4755857;30;20058;-77
2021/08/26 04:03:03;;;;;;;1.92;1.30;;;;;;;14.35;81.77;92405.28;4771821;30;20048;-77
2021/08/26 04:05:29;;;;;;;1.75;1.17;;;;;;;14.31;81.73;92406.97;4753544;30;20052;-77
2021/08/26 04:07:54;;;;;;;1.13;0.75;;;;;;;14.29;81.75;92414.41;4753768;30;20407;-78
2021/08/26 04:10:39;;;;;;;1.25;0.77;;;;;;;14.28;81.65;92412.88;4753621;30;20101;-78
2021/08/26 04:13:04;;;;;;;0.60;0.60;;;;;;;14.27;81.78;92413.94;4753805;30;20431;-77
2021/08/26 04:15:30;;;;;;;4.65;1.38;;;;;;;14.27;82.24;92413.94;4753541;30;20040;-77
2021/08/26 04:17:56;;;;;;;1.33;0.88;;;;;;;14.30;82.39;92413.34;4753398;30;20083;-78
2021/08/26 04:20:22;;;;;;;0.75;0.65;;;;;;;14.33;83.11;92423.25;4753438;30;20127;-77
2021/08/26 04:22:48;;;;;;;1.30;0.98;;;;;;;14.35;83.13;92410.53;4767149;30;20144;-78
2021/08/26 04:25:15;;;;;;;0.93;0.80;;;;;;;14.36;83.36;92412.09;4770645;30;20043;-78
2021/08/26 04:27:41;;;;;;;0.82;0.73;;;;;;;14.39;83.56;92415.97;4769964;30;20061;-78
2021/08/26 04:30:07;;;;;;;0.60;0.60;;;;;;;14.41;83.78;92405.09;4757737;30;20055;-78
2021/08/26 04:32:39;;;;;;;1.60;0.85;;;;;;;14.41;83.71;92410.38;4771661;30;20082;-78
2021/08/26 04:35:05;;;;;;;;;;;;;;;14.49;83.23;92407.72;4773269;30;20039;-78
2021/08/26 04:37:31;;;;;;;0.57;0.52;;;;;;;14.44;83.38;92407.91;4774374;30;19940;-78
2021/08/26 04:40:17;;;;;;;1.15;0.90;;;;;;;14.44;83.80;92412.41;4772926;30;20062;-79
2021/08/26 04:42:43;;;;;;;1.02;0.80;;;;;;;14.42;83.38;92404.03;4774670;30;20047;-78
2021/08/26 04:45:10;;;;;;;0.40;0.40;;;;;;;14.41;83.36;92405.09;4770887;30;20059;-78
2021/08/26 04:47:36;;;;;;;0.70;0.55;;;;;;;14.41;nan;92402.47;4787309;30;20055;-78
2021/08/26 04:50:03;;;;;;;2.20;1.13;;;;;;;14.41;83.98;92395.38;4771856;30;20043;-77
2021/08/26 04:52:28;;;;;;;0.52;0.50;;;;;;;14.42;83.83;92396.13;4782315;30;20295;-79
2021/08/26 04:54:54;;;;;;;1.13;0.90;;;;;;;14.42;83.69;92389.00;4755435;30;20415;-81
2021/08/26 04:57:20;;;;;;;0.98;0.80;;;;;;;14.44;83.37;92396.59;4754289;30;20108;-78
2021/08/26 04:59:45;;;;;;;0.90;0.80;;;;;;;14.46;82.97;92399.69;4770845;30;20042;-79
2021/08/26 05:02:12;;;;;;;0.77;0.75;;;;;;;14.47;83.07;92396.75;4772212;30;20056;-78
2021/08/26 05:04:38;;;;;;;1.35;1.13;;;;;;;14.49;82.68;92393.81;4743273;30;20418;-77
2021/08/26 05:07:04;;;;;;;1.65;1.02;;;;;;;14.50;82.63;92396.13;4771238;30;20051;-79
2021/08/26 05:09:29;;;;;;;0.73;0.73;;;;;;;14.54;82.32;92393.63;4774241;30;20044;-78
2021/08/26 05:11:58;;;;;;;1.23;1.00;;;;;;;14.61;82.02;92391.31;4758967;30;20059;-78
2021/08/26 05:14:23;;;;;;;1.35;0.88;;;;;;;14.67;81.93;92390.06;4774798;30;20119;-78
2021/08/26 05:16:50;;;;;;;2.63;1.05;;;;;;;14.75;81.56;92385.91;4758163;30;20161;-79
2021/08/26 05:19:15;;;;;;;0.95;0.80;;;;;;;14.81;81.29;92389.88;4742954;30;20130;-78
2021/08/26 05:21:41;;;;;;;1.38;1.23;;;;;;;14.87;80.72;92386.00;4779142;30;20058;-79
2021/08/26 05:24:07;;;;;;;1.27;1.05;;;;;;;14.95;80.55;92384.41;4782543;30;20059;-79
2021/08/26 05:26:32;;;;;;;5.63;1.20;;;;;;;15.01;80.45;92388.44;4799013;30;20043;-79
2021/08/26 05:28:58;;;;;;;1.38;0.95;;;;;;;15.08;80.10;92388.72;4798449;30;20039;-78
2021/08/26 05:31:24;;;;;;;1.27;1.15;;;;;;;15.14;79.74;92386.69;4786910;30;20055;-79
2021/08/26 05:33:49;;;;;;;1.33;0.95;;;;;;;15.24;79.26;92388.19;4784641;30;20051;-79
2021/08/26 05:36:15;;;;;;;1.17;0.75;;;;;;;15.34;79.08;92382.59;4779151;30;20064;-79
2021/08/26 05:38:40;;;;;;;0.47;0.45;;;;;;;15.43;78.72;92391.22;4764477;30;20081;-79
2021/08/26 05:41:06;;;;;;;2.28;1.38;;;;;;;15.55;78.58;92383.38;4780490;30;20056;-79
2021/08/26 05:43:32;;;;;;;0.70;0.70;;;;;;;15.66;78.62;92377.75;4794760;30;20047;-79
2021/08/26 05:45:57;;;;;;;2.42;1.15;;;;;;;15.78;78.27;92378.66;4794452;30;20056;-80
2021/08/26 05:48:23;;;;;;;0.93;0.70;;;;;;;15.89;77.90;92384.31;4780617;30;20064;-80
2021/08/26 05:50:48;;;;;;;2.15;1.02;;;;;;;15.99;79.01;92378.66;4783317;30;20052;-79
2021/08/26 05:53:14;;;;;;;1.45;1.02;;;;;;;16.08;80.59;92378.59;4762323;30;20566;-79
2021/08/26 05:55:40;;;;;;;0.90;0.80;;;;;;;16.22;79.66;92370.41;4766579;30;20410;-79
2021/08/26 05:58:05;;;;;;;0.85;0.80;;;;;;;16.33;78.80;92370.78;4781841;30;20048;-79
2021/08/26 06:00:31;;;;;;;1.88;1.23;;;;;;;16.44;77.93;92367.41;4779673;30;20500;-79
2021/08/26 06:02:56;;;;;;;3.35;1.38;;;;;;;16.57;76.32;92364.81;4769938;30;20138;-78
2021/08/26 06:05:22;;;;;;;0.85;0.68;;;;;;;16.72;75.86;92364.19;4766041;30;20071;-79
2021/08/26 06:07:48;;;;;;;1.25;0.93;;;;;;;16.90;75.07;92356.88;4779605;30;20067;-79
2021/08/26 06:10:14;;;;;;;0.70;0.70;;;;;;;17.09;74.13;92353.72;4781234;30;20062;-79
2021/08/26 06:12:41;;;;;;;1.98;1.15;;;;;;;17.27;72.97;92356.94;4794971;30;20054;-79
2021/08/26 06:15:10;;;;;;;0.93;0.70;;;;;;;17.39;74.87;92351.63;4780407;30;21545;-80
2021/08/26 06:17:35;;;;;;;1.77;1.00;;;;;;;17.46;75.43;92346.56;4780611;30;20051;-79
2021/08/26 06:20:04;;;;;;;1.85;1.42;;;;;;;17.65;75.20;92343.38;4779693;30;20051;-80
2021/08/26 06:22:29;;;;;;;2.78;1.08;;;;;;;17.93;73.67;92337.38;4780056;30;20046;-80
2021/08/26 06:24:55;;;;;;;1.67;1.20;;;;;;;19.51;68.96;92333.47;4781401;30;20076;-79
2021/08/26 06:27:21;;;;;;;1.95;1.35;;;;;;;23.05;58.07;92333.13;4772543;30;20048;-79
2021/08/26 06:29:46;;;;;;;0.80;0.80;;;;;;;25.60;48.82;92326.31;4766368;30;20070;-79
2021/08/26 06:32:12;;;;;;;1.92;1.17;;;;;;;27.75;43.32;92322.69;4776773;30;20059;-81
2021/08/26 06:34:38;;;;;;;2.88;1.40;;;;;;;29.12;40.05;92319.28;4785291;30;20048;-80
2021/08/26 06:37:03;;;;;;;4.22;1.35;;;;;;;30.04;38.26;92324.38;4785176;30;20056;-81
2021/08/26 06:39:29;;;;;;;2.72;1.63;;;;;;;29.44;38.80;92312.63;4785320;30;20066;-80
2021/08/26 06:41:55;;;;;;;2.05;1.40;;;;;;;30.11;38.57;92322.75;4783709;30;20051;-80
2021/08/26 06:44:22;;;;;;;2.53;1.75;;;;;;;31.03;36.64;92322.91;4783823;30;20059;-80
2021/08/26 06:46:48;;;;;;;2.65;1.60;;;;;;;30.75;34.51;92304.56;4784859;30;20051;-80
2021/08/26 06:49:13;;;;;;;1.92;1.40;;;;;;;31.14;34.14;92309.13;4784286;30;20071;-81
2021/08/26 06:51:39;;;;;;;5.95;1.95;;;;;;;29.62;38.20;92307.72;4768617;30;20052;-80
2021/08/26 06:54:05;;;;;;;1.77;1.40;;;;;;;28.97;39.86;92304.44;4784325;30;20052;-80
2021/08/26 06:56:30;;;;;;;2.60;1.58;;;;;;;26.33;45.81;92311.63;4769013;30;20111;-80
2021/08/26 06:58:56;;;;;;;2.03;1.27;;;;;;;25.29;49.15;92304.47;4784903;30;20052;-80
2021/08/26 07:01:21;;;;;;;0.98;0.93;;;;;;;23.95;52.58;92304.41;4767675;30;20126;-80
2021/08/26 07:03:47;;;;;;;2.75;1.42;;;;;;;25.37;49.12;92307.16;4768012;30;20052;-80
2021/08/26 07:06:16;;;;;;;1.40;1.02;;;;;;;24.81;50.37;92312.03;4782755;30;20147;-81
2021/08/26 07:08:41;;;;;;;1.58;1.20;;;;;;;24.13;52.14;92299.16;4782460;30;20048;-80
2021/08/26 07:11:07;;;;;;;1.67;1.33;;;;;;;23.11;56.06;92298.09;4782442;30;20050;-79
2021/08/26 07:13:33;;;;;;;1.83;1.40;;;;;;;22.75;58.25;92300.41;4766629;30;20063;-80
2021/08/26 07:15:58;;;;;;;1.50;1.13;;;;;;;22.69;57.59;92291.97;4783726;30;20047;-79
2021/08/26 07:18:24;;;;;;;1.35;1.15;;;;;;;22.70;55.82;92295.38;4783319;30;20064;-80
2021/08/26 07:20:50;;;;;;;2.30;1.40;;;;;;;21.70;58.72;92301.03;4783251;30;20114;-80
2021/08/26 07:23:16;;;;;;;1.13;0.90;;;;;;;21.33;61.54;92304.28;4764934;30;20151;-80
2021/08/26 07:25:42;;;;;;;13.43;1.40;;;;;;;21.06;60.85;92305.38;4764546;30;20125;-80
2021/08/26 07:28:08;;;;;;;1.60;1.02;;;;;;;20.51;65.71;92298.34;4748302;30;20067;-80
2021/08/26 07:30:34;;;;;;;2.03;1.02;;;;;;;20.24;67.33;92296.69;4777564;30;20086;-80
2021/08/26 07:33:00;;;;;;;1.60;1.08;;;;;;;19.48;70.46;92292.44;4746287;30;20068;-80
2021/08/26 07:35:25;;;;;;;1.67;1.27;;;;;;;19.51;69.90;92297.06;4764212;30;20086;-79
2021/08/26 07:37:51;;;;;;;1.02;0.93;;;;;;;18.74;72.11;92300.16;4762594;30;20577;-80
2021/08/26 07:40:17;;;;;;;1.92;1.38;;;;;;;19.20;70.93;92300.53;4730994;30;20051;-77
2021/08/26 07:42:42;;;;;;;2.30;1.70;;;;;;;19.45;70.53;92295.78;4742696;30;20056;-79
2021/08/26 07:45:09;;;;;;;1.52;1.00;;;;;;;18.79;72.11;92297.28;4747379;30;20048;-80
2021/08/26 07:47:35;;;;;;;1.60;0.98;;;;;;;19.37;70.23;92299.41;4749245;30;20047;-80
2021/08/26 07:50:00;;;;;;;0.88;0.70;;;;;;;19.66;70.03;92300.81;4761702;30;20032;-79
2021/08/26 07:52:28;;;;;;;1.25;1.00;;;;;;;19.08;71.41;92306.69;4762700;30;20060;-80
2021/08/26 07:54:54;;;;;;;1.50;1.15;;;;;;;19.37;71.10;92314.56;4761761;30;20036;-80
2021/08/26 07:57:19;;;;;;;2.47;1.27;;;;;;;19.93;68.04;92309.00;4747360;30;20056;-79
2021/08/26 07:59:48;;;;;;;0.88;0.73;;;;;;;19.19;71.70;92312.25;4762235;30;20077;-79
2021/08/26 08:02:14;;;;;;;1.92;1.15;;;;;;;19.66;69.10;92310.66;4752783;30;20143;-79
2021/08/26 08:04:40;;;;;;;1.27;0.98;;;;;;;19.61;68.47;92309.06;4756661;30;20139;-79
2021/08/26 08:07:07;;;;;;;1.52;0.90;;;;;;;19.61;69.01;92308.25;4739642;30;20060;-78
2021/08/26 08:09:33;;;;;;;1.88;1.00;;;;;;;19.45;68.59;92305.63;4737218;30;20047;-77
2021/08/26 08:12:00;;;;;;;7.05;1.50;;;;;;;19.96;65.74;92308.28;4752782;30;20051;-79
2021/08/26 08:14:28;;;;;;;2.35;1.48;;;;;;;20.56;63.61;92300.75;4736722;30;20048;-79
2021/08/26 08:16:55;;;;;;;2.25;1.40;;;;;;;20.76;64.56;92304.13;4735854;30;20078;-79
2021/08/26 08:19:20;;;;;;;1.80;1.13;;;;;;;20.60;62.22;92298.13;4722158;30;20055;-79
2021/08/26 08:21:46;;;;;;;1.88;1.17;;;;;;;20.82;63.01;92309.91;4736446;30;20056;-80
2021/08/26 08:24:11;;;;;;;1.50;1.00;;;;;;;21.01;65.65;92306.47;4737278;30;20048;-80
2021/08/26 08:26:37;;;;;;;3.05;1.23;;;;;;;20.78;66.07;92298.44;4754044;30;20056;-79
2021/08/26 08:29:03;;;;;;;1.40;1.10;;;;;;;20.78;64.67;92298.44;4755264;30;20540;-77
2021/08/26 08:31:28;;;;;;;1.23;0.77;;;;;;;20.52;66.00;92297.22;4756971;30;20579;-76
2021/08/26 08:33:54;;;;;;;2.90;1.20;;;;;;;20.26;67.46;92302.41;4752742;30;20138;-76
2021/08/26 08:36:20;;;;;;;0.82;0.80;;;;;;;20.06;68.47;92291.81;4767164;30;20055;-77
2021/08/26 08:38:46;;;;;;;2.10;1.33;;;;;;;20.22;67.70;92291.72;4747717;30;20443;-77
2021/08/26 08:41:19;;;;;;;1.73;1.20;;;;;;;19.82;69.86;92297.38;4749001;30;20056;-77
2021/08/26 08:43:45;;;;;;;1.48;1.00;;;;;;;20.09;67.71;92293.75;4754466;30;20044;-77
2021/08/26 08:46:12;;;;;;;2.20;1.30;;;;;;;20.29;67.70;92289.19;4756490;30;20127;-78
2021/08/26 08:48:42;;;;;;;2.47;1.45;;;;;;;19.51;70.11;92288.34;4765566;30;20060;-76
2021/08/26 08:51:10;;;;;;;2.60;1.50;;;;;;;19.86;67.96;92292.88;4750554;30;20055;-76
2021/08/26 08:53:36;;;;;;;1.52;1.13;;;;;;;20.34;68.35;92285.50;4766807;30;20038;-76
2021/08/26 08:56:06;;;;;;;1.98;1.38;;;;;;;20.32;67.25;92285.06;4767720;30;20051;-77
2021/08/26 08:58:38;;;;;;;1.83;1.23;;;;;;;19.48;69.86;92281.06;4766452;30;20515;-77
2021/08/26 09:01:04;;;;;;;1.50;1.08;;;;;;;19.76;69.68;92284.34;4766784;30;20075;-77
2021/08/26 09:03:30;;;;;;;1.52;0.98;;;;;;;19.87;68.24;92278.50;4767999;30;20139;-78
2021/08/26 09:06:00;;;;;;;2.63;1.40;;;;;;;19.86;69.01;92287.56;4767700;30;20059;-76
2021/08/26 09:08:28;;;;;;;0.95;0.80;;;;;;;20.02;67.67;92285.66;4749655;30;20090;-77
2021/08/26 09:11:09;;;;;;;1.75;1.08;;;;;;;20.03;67.34;92292.47;4743245;30;20039;-77
2021/08/26 09:13:35;;;;;;;1.35;0.90;;;;;;;20.01;67.62;92289.41;4767124;30;20052;-77
2021/08/26 09:16:02;;;;;;;2.22;1.27;;;;;;;19.96;66.20;92287.03;4769020;30;20075;-77
2021/08/26 09:18:29;;;;;;;1.65;1.10;;;;;;;20.51;62.55;92289.59;4769093;30;20202;-77
2021/08/26 09:21:14;;;;;;;1.10;0.77;;;;;;;20.48;64.12;92291.06;4752799;30;20047;-77
2021/08/26 09:24:00;;;;;;;2.20;1.42;;;;;;;20.49;66.20;92281.19;4767635;30;20070;-77
2021/08/26 09:26:28;;;;;;;1.35;0.90;;;;;;;20.74;62.45;92287.00;4767225;30;20050;-76
2021/08/26 09:29:00;;;;;;;1.90;1.15;;;;;;;20.50;63.07;92278.19;4751824;30;20407;-76
2021/08/26 09:31:28;;;;;;;1.38;1.15;;;;;;;20.63;63.75;92275.41;4766714;30;20071;-76
2021/08/26 09:33:59;;;;;;;1.85;1.15;;;;;;;20.62;63.58;92263.22;4769821;30;20043;-76
2021/08/26 09:36:27;;;;;;;1.00;0.85;;;;;;;20.67;63.14;92270.91;4768275;30;20091;-76
2021/08/26 09:38:58;;;;;;;1.88;1.10;;;;;;;20.97;62.45;92269.13;4768130;30;20506;-76
2021/08/26 09:41:37;;;;;;;1.67;1.08;;;;;;;21.47;62.50;92257.75;4752010;30;20541;-76
2021/08/26 09:44:27;;;;;;;1.95;1.15;;;;;;;21.36;63.43;92255.66;4751463;30;20688;-76
2021/08/26 09:46:56;;;;;;;1.27;0.98;;;;;;;21.39;59.94;92249.63;4768295;30;20577;-77
2021/08/26 09:49:24;;;;;;;1.75;1.40;;;;;;;21.99;58.87;92245.47;4768136;30;20527;-78
2021/08/26 09:52:11;;;;;;;2.13;1.30;;;;;;;22.50;58.16;92252.91;4768549;29;20451;-77
2021/08/26 09:54:49;;;;;;;1.52;1.00;;;;;;;21.66;59.48;92252.31;4771877;30;20048;-77
2021/08/26 09:57:24;;;;;;;1.55;1.13;;;;;;;22.18;59.22;92253.31;4768380;30;20052;-77
2021/08/26 09:59:52;;;;;;;1.73;1.20;;;;;;;22.02;58.10;92244.72;4769794;30;20106;-77
2021/08/26 10:02:18;;;;;;;2.13;1.30;;;;;;;21.40;59.67;92242.41;4771027;30;20203;-77
2021/08/26 10:04:44;;;;;;;2.47;1.30;;;;;;;21.66;60.00;92233.66;4753902;30;20059;-77
2021/08/26 10:07:10;;;;;;;1.73;1.08;;;;;;;22.45;58.58;92234.59;4754793;30;20523;-77
2021/08/26 10:09:40;;;;;;;2.35;1.50;;;;;;;22.21;57.76;92230.50;4770346;30;20051;-77
2021/08/26 10:12:11;;;;;;;1.08;0.85;;;;;;;21.63;60.31;92231.69;4770240;30;20052;-77
2021/08/26 10:14:37;;;;;;;0.95;0.80;;;;;;;21.38;60.53;92232.09;4770076;30;20064;-77
2021/08/26 10:17:03;;;;;;;0.60;0.60;;;;;;;21.59;60.29;92217.56;4770700;30;20044;-77
2021/08/26 10:19:29;;;;;;;1.35;1.02;;;;;;;21.65;59.63;92226.78;4770064;30;20201;-77
2021/08/26 10:21:55;;;;;;;1.67;1.15;;;;;;;21.52;60.23;92222.81;4769727;30;20563;-76
2021/08/26 10:24:23;;;;;;;1.15;0.68;;;;;;;21.06;60.93;92218.34;4770895;30;20059;-76
2021/08/26 10:26:59;;;;;;;1.90;1.08;;;;;;;21.04;63.33;92217.16;4784423;30;20043;-77
2021/08/26 10:29:26;;;;;;;2.03;1.30;;;;;;;21.52;60.65;92212.16;4788765;30;20057;-78
2021/08/26 10:32:02;;;;;;;2.63;1.42;;;;;;;22.17;59.42;92195.78;4777424;30;20094;-78
2021/08/26 10:34:31;;;;;;;2.63;0.95;;;;;;;21.73;60.45;92193.78;4769658;30;20116;-77
2021/08/26 10:36:57;;;;;;;2.88;1.15;;;;;;;22.15;59.43;92206.03;4770168;30;20044;-77
2021/08/26 10:39:41;;;;;;;1.17;0.93;;;;;;;22.83;57.93;92204.06;4769165;30;20495;-77
2021/08/26 10:42:16;;;;;;;0.98;0.77;;;;;;;22.33;58.15;92202.84;4754444;30;20109;-78
2021/08/26 10:45:03;;;;;;;3.08;1.60;;;;;;;22.28;58.60;92203.94;4770787;30;20079;-77
2021/08/26 10:47:47;;;;;;;1.63;1.17;;;;;;;22.53;58.87;92196.16;4752102;30;20056;-78
2021/08/26 10:50:17;;;;;;;1.25;0.95;;;;;;;22.07;58.92;92191.13;4767092;30;20415;-77
2021/08/26 10:53:00;;;;;;;2.25;1.10;;;;;;;21.95;60.33;92196.69;4769429;30;20051;-77
2021/08/26 10:55:38;;;;;;;0.88;0.73;;;;;;;22.45;57.86;92191.91;4753306;30;20138;-77
2021/08/26 10:58:16;;;;;;;1.40;1.00;;;;;;;22.28;59.52;92200.50;4766121;30;20494;-77
2021/08/26 11:00:46;;;;;;;0.80;0.57;;;;;;;21.47;59.32;92196.50;4768886;30;20048;-77
2021/08/26 11:03:34;;;;;;;1.92;1.10;;;;;;;22.21;59.24;92193.16;4752547;30;20051;-78
2021/08/26 11:06:19;;;;;;;1.27;0.90;;;;;;;21.82;59.29;92194.28;4767356;30;20512;-77
2021/08/26 11:08:47;;;;;;;1.13;0.98;;;;;;;21.62;59.31;92190.22;4768152;30;20515;-78
2021/08/26 11:11:24;;;;;;;2.03;1.33;;;;;;;22.31;59.19;92189.09;4770702;30;20508;-77
2021/08/26 11:13:50;;;;;;;1.52;1.00;;;;;;;22.02;59.81;92188.75;4754717;30;20051;-78
2021/08/26 11:16:25;;;;;;;1.48;1.02;;;;;;;22.19;58.86;92188.19;4771890;30;20073;-78
2021/08/26 11:19:04;;;;;;;2.22;1.30;;;;;;;22.44;57.81;92185.03;4769536;30;20063;-80
2021/08/26 11:21:45;;;;;;;1.27;0.90;;;;;;;22.28;57.98;92192.50;4768318;30;20043;-78
2021/08/26 11:24:20;;;;;;;1.85;1.27;;;;;;;21.75;60.67;92183.53;4772177;30;20062;-78
2021/08/26 11:26:50;;;;;;;0.73;0.63;;;;;;;21.88;55.63;92191.28;4775970;30;20059;-78
2021/08/26 11:29:22;;;;;;;0.90;0.80;;;;;;;22.11;58.65;92189.28;4769897;30;20056;-78
2021/08/26 11:31:54;;;;;;;1.60;1.10;;;;;;;21.73;62.05;92180.47;4764756;30;20055;-77
2021/08/26 11:34:41;;;;;;;1.65;1.25;;;;;;;21.85;58.03;92178.69;4753044;30;20082;-78
2021/08/26 11:37:17;;;;;;;1.70;1.27;;;;;;;22.56;56.37;92176.78;4753444;30;20067;-78
2021/08/26 11:39:49;;;;;;;2.05;1.10;;;;;;;22.40;57.11;92173.56;4768623;30;20056;-80
2021/08/26 11:42:18;;;;;;;1.23;0.93;;;;;;;22.74;57.13;92168.94;4754154;30;20114;-78
2021/08/26 11:44:44;;;;;;;1.02;0.77;;;;;;;22.44;57.06;92172.47;4771475;30;20046;-78
2021/08/26 11:47:10;;;;;;;1.98;1.35;;;;;;;22.59;56.87;92168.03;4746527;30;20060;-78
2021/08/26 11:49:41;;;;;;;2.13;1.23;;;;;;;22.57;55.79;92172.97;4752438;30;20043;-77
2021/08/26 11:52:09;;;;;;;2.30;1.17;;;;;;;22.41;58.20;92164.44;4750544;30;20054;-78
2021/08/26 11:54:38;;;;;;;1.77;1.05;;;;;;;22.42;57.37;92166.72;4772261;30;20463;-77
2021/08/26 11:57:05;;;;;;;2.17;1.40;;;;;;;22.76;56.95;92153.28;4770120;30;20044;-77
2021/08/26 11:59:34;;;;;;;1.27;0.90;;;;;;;22.99;56.77;92155.78;4769104;30;20499;-77
2021/08/26 12:02:23;;;;;;;2.75;1.45;;;;;;;23.43;55.22;92152.22;4767327;30;20541;-78
2021/08/26 12:04:57;;;;;;;1.48;1.15;;;;;;;23.33;54.95;92152.94;4769753;30;20385;-77
2021/08/26 12:07:29;;;;;;;1.77;1.17;;;;;;;23.17;56.55;92153.22;4758702;30;20138;-80
2021/08/26 12:09:57;;;;;;;2.63;1.17;;;;;;;22.73;55.80;92137.28;4774495;30;20054;-80
2021/08/26 12:12:23;;;;;;;2.65;1.50;;;;;;;22.64;54.60;92146.34;4774831;30;20117;-79
2021/08/26 12:14:49;;;;;;;1.00;0.88;;;;;;;23.05;56.84;92140.94;4771305;30;20052;-79
2021/08/26 12:17:20;;;;;;;2.72;1.40;;;;;;;23.16;55.05;92149.00;4771342;30;20051;-80
2021/08/26 12:19:48;;;;;;;1.67;1.17;;;;;;;22.95;56.35;92141.63;4772965;30;20048;-79
2021/08/26 12:22:21;;;;;;;1.65;1.13;;;;;;;22.90;56.75;92130.50;4773194;30;20104;-79
2021/08/26 12:24:56;;;;;;;1.92;1.27;;;;;;;22.47;57.42;92138.97;4755901;30;20071;-79
2021/08/26 12:27:23;;;;;;;1.05;0.80;;;;;;;22.84;56.61;92135.44;4773124;30;20522;-79
2021/08/26 12:29:50;;;;;;;7.03;1.25;;;;;;;22.61;56.39;92139.09;4773959;30;20055;-79
2021/08/26 12:32:36;;;;;;;1.70;1.20;;;;;;;23.06;55.70;92139.81;4744492;30;20098;-78
2021/08/26 12:35:22;;;;;;;1.65;1.10;;;;;;;22.81;54.91;92138.88;4727781;30;20048;-78
2021/08/26 12:37:53;;;;;;;1.40;1.15;;;;;;;22.86;55.61;92131.25;4774344;30;20549;-78
2021/08/26 12:40:18;;;;;;;2.20;1.27;;;;;;;23.47;55.22;92128.97;4759792;30;20090;-78
2021/08/26 12:43:05;;;;;;;0.77;0.75;;;;;;;23.00;54.95;92125.28;4758320;30;20031;-78
2021/08/26 12:45:34;;;;;;;1.42;1.02;;;;;;;23.17;56.10;92125.75;4762491;30;20052;-79
2021/08/26 12:48:23;;;;;;;1.42;1.00;;;;;;;23.14;55.20;92124.59;4764840;30;20067;-79
2021/08/26 12:51:24;;;;;;;2.00;1.30;;;;;;;23.34;55.38;92122.41;4738578;30;20049;-78
2021/08/26 12:54:04;;;;;;;1.08;0.70;;;;;;;23.39;54.60;92113.28;4756485;30;20044;-78
2021/08/26 12:56:41;;;;;;;2.25;1.40;;;;;;;23.36;55.85;92125.47;4755415;30;20064;-79
2021/08/26 12:59:08;;;;;;;6.05;1.20;;;;;;;23.73;54.24;92121.78;4757265;30;20055;-79
2021/08/26 13:01:36;;;;;;;2.08;1.30;;;;;;;23.70;54.78;92117.22;4763848;30;20078;-79
2021/08/26 13:04:03;;;;;;;1.70;0.98;;;;;;;23.47;53.77;92104.16;4741074;30;20063;-78
2021/08/26 13:06:45;;;;;;;3.47;1.40;;;;;;;22.90;55.47;92104.63;4758484;30;20071;-79
2021/08/26 13:09:24;;;;;;;1.65;1.15;;;;;;;23.38;55.85;92096.50;4755660;30;20056;-79
2021/08/26 13:11:55;;;;;;;2.53;1.40;;;;;;;23.41;55.33;92093.06;4754414;30;20060;-78
2021/08/26 13:14:20;;;;;;;2.20;1.30;;;;;;;23.59;55.10;92095.81;4751999;30;20466;-79
2021/08/26 13:16:46;;;;;;;2.05;1.17;;;;;;;23.02;57.21;92088.31;4754082;30;20051;-79
2021/08/26 13:19:12;;;;;;;1.30;1.00;;;;;;;22.61;56.44;92088.41;4752239;30;20052;-78
2021/08/26 13:21:37;;;;;;;2.08;1.20;;;;;;;22.95;56.21;92085.56;4739010;30;20050;-79
2021/08/26 13:24:03;;;;;;;1.67;1.20;;;;;;;23.37;55.55;92084.28;4760715;30;20741;-78
2021/08/26 13:26:29;;;;;;;2.15;1.42;;;;;;;23.73;53.44;92088.97;4755223;30;20056;-78
2021/08/26 13:28:55;;;;;;;1.58;1.17;;;;;;;23.80;54.32;92079.13;4758337;30;20594;-79
2021/08/26 13:31:22;;;;;;;1.23;0.90;;;;;;;23.57;54.98;92081.28;4759104;30;20075;-79
2021/08/26 13:33:49;;;;;;;1.95;1.27;;;;;;;23.48;54.49;92066.41;4768460;30;20105;-80
2021/08/26 13:36:15;;;;;;;1.98;1.40;;;;;;;23.33;55.04;92062.13;4763978;30;20040;-79
2021/08/26 13:38:42;;;;;;;2.33;1.38;;;;;;;23.34;54.94;92058.31;4780166;30;20052;-79
2021/08/26 13:41:08;;;;;;;1.70;1.17;;;;;;;23.12;53.79;92060.13;4772761;30;20743;-79
2021/08/26 13:43:34;;;;;;;1.73;1.10;;;;;;;23.18;56.13;92063.97;4773373;30;20063;-78
2021/08/26 13:45:59;;;;;;;1.75;1.20;;;;;;;23.47;55.05;92062.19;4765570;30;20040;-79
2021/08/26 13:48:25;;;;;;;1.70;1.23;;;;;;;23.90;55.50;92056.97;4769503;30;20576;-79
2021/08/26 13:50:51;;;;;;;2.25;1.08;;;;;;;23.83;53.73;92048.19;4761192;30;20106;-78
2021/08/26 13:53:18;;;;;;;1.63;1.08;;;;;;;23.45;54.22;92059.13;4777567;30;20071;-79
2021/08/26 13:55:44;;;;;;;2.38;1.40;;;;;;;23.20;53.99;92052.94;4780089;30;20035;-78
2021/08/26 13:58:10;;;;;;;2.53;1.35;;;;;;;23.05;55.47;92052.09;4776045;30;20116;-79
2021/08/26 14:00:35;;;;;;;1.90;1.35;;;;;;;23.15;55.76;92048.72;4745387;30;20569;-78
2021/08/26 14:03:01;;;;;;;2.42;1.50;;;;;;;23.32;54.34;92049.16;4754210;30;20052;-78
2021/08/26 14:05:29;;;;;;;3.50;1.40;;;;;;;23.16;55.78;92047.56;4774179;30;20040;-79
2021/08/26 14:07:55;;;;;;;1.75;1.17;;;;;;;23.38;54.43;92043.06;4746340;30;20060;-78
2021/08/26 14:10:22;;;;;;;1.42;1.17;;;;;;;23.86;53.74;92044.75;4762106;30;20050;-78
2021/08/26 14:12:48;;;;;;;2.15;1.50;;;;;;;23.30;55.06;92040.75;4745191;30;20082;-79
2021/08/26 14:15:14;;;;;;;2.55;1.55;;;;;;;23.46;54.00;92043.84;4760781;30;20450;-79
2021/08/26 14:17:40;;;;;;;4.65;1.73;;;;;;;23.66;52.90;92044.28;4774368;30;20056;-80
2021/08/26 14:20:06;;;;;;;1.95;1.13;;;;;;;23.75;50.72;92036.72;4766074;30;20102;-80
2021/08/26 14:22:32;;;;;;;1.95;1.13;;;;;;;23.43;54.79;92034.69;4771475;30;20055;-79
2021/08/26 14:24:57;;;;;;;1.65;1.17;;;;;;;23.61;54.45;92034.00;4762964;30;20554;-79
2021/08/26 14:27:23;;;;;;;1.42;1.13;;;;;;;23.84;54.06;92036.34;4758871;30;20060;-79
2021/08/26 14:29:49;;;;;;;2.75;1.42;;;;;;;23.81;51.93;92029.84;4760273;30;20048;-78
2021/08/26 14:32:14;;;;;;;1.85;1.17;;;;;;;23.55;53.50;92030.16;4757959;30;20083;-79
2021/08/26 14:34:40;;;;;;;1.40;0.98;;;;;;;23.65;52.99;92034.75;4765355;30;20458;-79
2021/08/26 14:37:06;;;;;;;1.88;1.20;;;;;;;23.38;52.54;92020.97;4758069;30;20711;-79
2021/08/26 14:39:31;;;;;;;2.08;1.25;;;;;;;23.65;53.05;92024.06;4762810;30;20135;-79
2021/08/26 14:41:57;;;;;;;2.28;1.40;;;;;;;23.40;53.72;92019.44;4755551;30;20070;-79
2021/08/26 14:44:24;;;;;;;2.80;1.67;;;;;;;23.61;53.06;92017.97;4744866;30;20496;-80
2021/08/26 14:46:50;;;;;;;3.70;2.00;;;;;;;23.95;52.90;92020.31;4756145;30;20247;-80
2021/08/26 14:49:16;;;;;;;2.72;1.40;;;;;;;23.73;53.39;92014.91;4772294;30;20733;-80
2021/08/26 14:51:43;;;;;;;9.43;1.80;;;;;;;23.65;53.90;92008.03;4772301;30;20131;-80
2021/08/26 14:54:29;;;;;;;1.23;0.93;;;;;;;23.61;52.88;91999.25;4785417;30;20055;-80
2021/08/26 14:56:54;;;;;;;2.13;1.20;;;;;;;23.50;53.29;92007.25;4763097;30;20143;-79
2021/08/26 14:59:20;;;;;;;2.63;1.52;;;;;;;23.30;54.01;92009.47;4767928;30;20527;-78
2021/08/26 15:01:46;;;;;;;1.33;0.93;;;;;;;23.46;54.29;92001.91;4758081;30;20064;-77
2021/08/26 15:04:11;;;;;;;1.75;1.13;;;;;;;23.04;54.55;92000.63;4771909;30;20067;-78
2021/08/26 15:06:37;;;;;;;1.17;1.00;;;;;;;23.20;54.60;91996.88;4754060;30;20059;-77
2021/08/26 15:09:03;;;;;;;3.22;1.27;;;;;;;22.98;54.89;92004.75;4763866;30;20100;-78
2021/08/26 15:11:28;;;;;;;4.13;1.42;;;;;;;22.90;54.63;91992.53;4761731;30;20050;-78
2021/08/26 15:13:54;;;;;;;2.05;1.33;;;;;;;22.65;56.04;91993.16;4756141;30;20075;-76